Time;durP1;ratioP1;P1;durP2;ratioP2;P2;SDS_P1;SDS_P2;PMS_P1;PMS_P2;Temp;Humidity;BMP_temperature;BMP_pressure;BME280_temperature;BME280_humidity;BME280_pressure;Samples;Min_cycle;Max_cycle;Signal;HPM_P1;HPM_P2
2022/05/20 00:01:33;;;;;;;7.43;4.93;;;22.40;99.90;;;;;;7373412;19;20376;-45
2022/05/20 00:04:06;;;;;;;7.17;4.67;;;22.30;99.90;;;;;;7374359;19;20403;-44
2022/05/20 00:06:43;;;;;;;7.90;4.97;;;22.00;99.90;;;;;;7376367;19;20901;-44
2022/05/20 00:09:15;;;;;;;6.60;5.07;;;21.70;99.90;;;;;;7367364;19;20376;-44
2022/05/20 00:11:44;;;;;;;9.80;4.93;;;21.60;99.90;;;;;;7372014;19;20882;-45
2022/05/20 00:14:14;;;;;;;5.33;4.83;;;21.70;99.90;;;;;;7375391;19;20472;-44
2022/05/20 00:16:43;;;;;;;7.50;4.93;;;21.70;99.90;;;;;;7369628;19;20372;-45
2022/05/20 00:19:16;;;;;;;5.60;4.60;;;21.80;99.90;;;;;;7370524;19;20845;-46
2022/05/20 00:21:48;;;;;;;6.03;4.20;;;21.90;99.90;;;;;;7370200;19;20768;-44
2022/05/20 00:24:20;;;;;;;6.77;5.23;;;21.70;99.90;;;;;;7371725;19;20380;-45
2022/05/20 00:26:50;;;;;;;6.20;4.23;;;21.50;99.90;;;;;;7372517;19;20376;-46
2022/05/20 00:29:20;;;;;;;6.10;5.33;;;21.30;99.90;;;;;;7368491;19;20382;-44
2022/05/20 00:31:52;;;;;;;5.90;4.50;;;21.10;99.90;;;;;;7366350;19;20412;-43
2022/05/20 00:34:24;;;;;;;7.50;5.23;;;21.20;99.90;;;;;;7368801;19;20949;-44
2022/05/20 00:36:57;;;;;;;7.23;5.60;;;21.00;99.90;;;;;;7371978;19;20380;-44
2022/05/20 00:39:26;;;;;;;6.33;5.07;;;20.90;99.90;;;;;;7373945;19;20382;-44
2022/05/20 00:41:56;;;;;;;8.47;5.70;;;20.80;99.90;;;;;;7363446;19;20372;-43
2022/05/20 00:44:25;;;;;;;6.97;4.77;;;20.80;99.90;;;;;;7372441;19;20916;-42
2022/05/20 00:46:57;;;;;;;7.57;5.60;;;20.80;99.90;;;;;;7368506;19;20897;-44
2022/05/20 00:49:28;;;;;;;7.47;5.43;;;20.80;99.90;;;;;;7366237;19;20428;-44
2022/05/20 00:52:07;;;;;;;5.70;5.10;;;20.80;99.90;;;;;;7371003;19;20376;-43
2022/05/20 00:54:41;;;;;;;6.10;5.30;;;20.70;99.90;;;;;;7370143;19;20394;-46
2022/05/20 00:57:18;;;;;;;5.63;4.97;;;20.70;99.90;;;;;;7368432;19;20384;-45
2022/05/20 00:59:55;;;;;;;6.50;5.20;;;20.50;99.90;;;;;;7371313;19;20423;-46
2022/05/20 01:02:27;;;;;;;14.43;4.83;;;20.50;99.90;;;;;;7371040;19;20375;-46
2022/05/20 01:05:06;;;;;;;5.03;4.53;;;20.40;99.90;;;;;;7367667;19;20380;-43
2022/05/20 01:07:42;;;;;;;6.07;5.00;;;20.70;99.90;;;;;;7374591;19;20364;-44
2022/05/20 01:10:12;;;;;;;6.67;5.30;;;20.90;99.90;;;;;;7367072;19;20468;-45
2022/05/20 01:12:47;;;;;;;7.87;5.97;;;20.50;99.90;;;;;;7372298;19;20923;-45
2022/05/20 01:15:16;;;;;;;7.77;5.07;;;20.40;99.90;;;;;;7372296;19;20376;-46
2022/05/20 01:17:50;;;;;;;6.13;5.30;;;20.50;99.90;;;;;;7372532;19;20746;-46
2022/05/20 01:20:23;;;;;;;8.77;5.00;;;20.70;99.90;;;;;;7369066;19;20499;-46
2022/05/20 01:23:10;;;;;;;10.17;4.73;;;20.50;99.90;;;;;;7372125;19;20395;-45
2022/05/20 01:25:43;;;;;;;9.77;5.43;;;20.20;99.90;;;;;;7370684;19;21161;-45
2022/05/20 01:28:13;;;;;;;10.67;5.50;;;20.20;99.90;;;;;;7365119;19;20906;-45
2022/05/20 01:31:01;;;;;;;11.47;4.73;;;20.00;99.90;;;;;;7369431;19;20866;-45
2022/05/20 01:33:33;;;;;;;12.30;5.10;;;19.70;99.90;;;;;;7363122;19;20383;-46
2022/05/20 01:36:07;;;;;;;6.00;5.23;;;19.90;99.90;;;;;;7372280;19;20372;-45
2022/05/20 01:38:39;;;;;;;8.20;5.03;;;19.80;99.90;;;;;;7371133;19;20384;-46
2022/05/20 01:41:11;;;;;;;6.10;4.90;;;19.70;99.90;;;;;;7372582;19;20853;-45
2022/05/20 01:43:52;;;;;;;8.77;5.80;;;19.60;99.90;;;;;;7373606;19;21396;-46
2022/05/20 01:46:29;;;;;;;7.97;5.40;;;19.70;99.90;;;;;;7372505;19;20374;-45
2022/05/20 01:49:13;;;;;;;6.40;4.80;;;19.40;99.90;;;;;;7366402;19;20432;-45
2022/05/20 01:51:51;;;;;;;7.00;5.43;;;19.50;99.90;;;;;;7373988;19;20412;-45
2022/05/20 01:54:35;;;;;;;11.73;6.23;;;19.50;99.90;;;;;;7374897;19;20443;-45
2022/05/20 01:57:10;;;;;;;13.77;6.03;;;19.50;99.90;;;;;;7373380;19;21048;-45
2022/05/20 01:59:46;;;;;;;18.47;4.90;;;19.40;99.90;;;;;;7372919;19;20422;-45
2022/05/20 02:02:25;;;;;;;8.00;5.90;;;19.70;99.90;;;;;;7368173;19;20372;-45
2022/05/20 02:05:01;;;;;;;6.63;5.07;;;19.70;99.90;;;;;;7378169;19;20384;-45
2022/05/20 02:07:35;;;;;;;6.77;5.20;;;19.60;99.90;;;;;;7378958;19;20379;-45
2022/05/20 02:10:16;;;;;;;9.50;6.33;;;19.50;99.90;;;;;;7375569;19;20876;-45
2022/05/20 02:12:52;;;;;;;7.03;5.23;;;19.60;99.90;;;;;;7373223;19;20747;-45
2022/05/20 02:15:27;;;;;;;7.90;5.07;;;19.70;99.90;;;;;;7379676;19;20384;-45
2022/05/20 02:18:04;;;;;;;11.13;5.40;;;19.60;99.90;;;;;;7381171;19;20380;-49
2022/05/20 02:20:42;;;;;;;9.60;5.60;;;19.50;99.90;;;;;;7375144;19;20403;-46
2022/05/20 02:23:17;;;;;;;10.57;6.43;;;19.30;99.90;;;;;;7372831;19;20971;-45
2022/05/20 02:25:54;;;;;;;9.67;5.73;;;19.50;99.90;;;;;;7380892;19;20394;-46
2022/05/20 02:28:30;;;;;;;5.97;5.40;;;19.30;99.90;;;;;;7380134;19;20868;-47
2022/05/20 02:31:02;;;;;;;7.53;5.90;;;19.30;99.90;;;;;;7374733;19;20372;-42
2022/05/20 02:33:32;;;;;;;10.47;5.87;;;19.10;99.90;;;;;;7376389;19;20379;-42
2022/05/20 02:36:06;;;;;;;6.80;5.40;;;19.00;99.90;;;;;;7378437;19;20411;-42
2022/05/20 02:38:39;;;;;;;7.83;5.77;;;18.90;99.90;;;;;;7377256;19;20647;-42
2022/05/20 02:41:11;;;;;;;19.07;5.57;;;19.00;99.90;;;;;;7375612;19;20447;-42
2022/05/20 02:43:45;;;;;;;7.07;6.13;;;19.10;99.90;;;;;;7378369;19;20364;-40
2022/05/20 02:46:15;;;;;;;9.07;5.80;;;19.20;99.90;;;;;;7377522;19;20411;-42
2022/05/20 02:48:47;;;;;;;9.70;5.83;;;19.20;99.90;;;;;;7363297;19;21013;-42
2022/05/20 02:51:17;;;;;;;8.53;5.77;;;18.90;99.90;;;;;;7344366;19;20392;-42
2022/05/20 02:53:47;;;;;;;7.77;5.93;;;18.90;99.90;;;;;;7372421;19;20447;-41
2022/05/20 02:56:19;;;;;;;11.67;5.67;;;18.80;99.90;;;;;;7379160;19;20463;-42
2022/05/20 03:04:22;;;;;;;9.13;7.00;;;19.20;99.90;;;;;;7371696;19;23598;-47
2022/05/20 03:06:54;;;;;;;10.17;6.23;;;18.90;99.90;;;;;;7379167;19;20383;-46
2022/05/20 03:09:26;;;;;;;8.83;6.07;;;18.90;99.90;;;;;;7374994;19;20364;-47
2022/05/20 03:12:01;;;;;;;7.63;5.80;;;19.00;99.90;;;;;;7377783;19;20840;-46
2022/05/20 03:14:30;;;;;;;8.07;6.30;;;19.20;99.90;;;;;;7370770;19;20376;-45
2022/05/20 03:17:02;;;;;;;11.97;6.77;;;19.30;99.90;;;;;;7374430;19;20384;-45
2022/05/20 03:19:32;;;;;;;10.27;5.83;;;19.30;99.90;;;;;;7364317;19;20383;-45
2022/05/20 03:22:07;;;;;;;15.57;5.60;;;19.30;99.90;;;;;;7368477;19;20399;-46
2022/05/20 03:24:40;;;;;;;8.67;6.47;;;19.20;99.90;;;;;;7376099;19;20444;-47
2022/05/20 03:27:12;;;;;;;14.53;6.80;;;19.20;99.90;;;;;;7376731;19;21127;-46
2022/05/20 03:29:43;;;;;;;11.00;6.60;;;19.00;99.90;;;;;;7375828;19;20443;-46
2022/05/20 03:32:13;;;;;;;7.27;6.00;;;19.10;99.90;;;;;;7362555;19;20382;-45
2022/05/20 03:34:43;;;;;;;12.67;7.53;;;19.30;99.90;;;;;;7376086;19;20389;-45
2022/05/20 03:37:15;;;;;;;8.67;6.03;;;19.50;99.90;;;;;;7379830;19;20376;-46
2022/05/20 03:39:47;;;;;;;9.00;6.27;;;19.50;99.90;;;;;;7377964;19;20930;-45
2022/05/20 03:42:21;;;;;;;7.90;6.00;;;19.50;99.90;;;;;;7373840;19;23251;-44
2022/05/20 03:44:54;;;;;;;7.53;6.00;;;19.70;99.90;;;;;;7378722;19;20839;-45
2022/05/20 03:47:26;;;;;;;10.60;6.50;;;19.70;99.90;;;;;;7371344;19;20369;-45
2022/05/20 03:49:55;;;;;;;7.03;6.23;;;19.70;99.90;;;;;;7363554;19;20435;-45
2022/05/20 03:52:25;;;;;;;8.33;6.30;;;19.70;99.90;;;;;;7372252;19;20389;-44
2022/05/20 03:54:54;;;;;;;7.70;6.17;;;19.70;99.90;;;;;;7367563;19;20421;-44
2022/05/20 03:57:29;;;;;;;8.03;5.20;;;19.80;99.90;;;;;;7370787;19;20380;-44
2022/05/20 03:59:58;;;;;;;8.07;6.27;;;19.80;99.90;;;;;;7373829;19;20364;-39
2022/05/20 04:02:29;;;;;;;8.00;6.03;;;19.90;99.90;;;;;;7372244;19;20382;-41
2022/05/20 04:05:00;;;;;;;9.63;6.00;;;19.80;99.90;;;;;;7367757;19;20380;-39
2022/05/20 04:07:34;;;;;;;9.83;6.10;;;19.60;99.90;;;;;;7367713;19;20420;-41
2022/05/20 04:10:10;;;;;;;7.17;5.70;;;19.90;99.90;;;;;;7375899;19;20379;-41
2022/05/20 04:12:44;;;;;;;7.70;6.40;;;19.90;99.90;;;;;;7366388;19;20364;-41
2022/05/20 04:15:16;;;;;;;6.87;5.67;;;19.90;99.90;;;;;;7359491;19;20379;-39
2022/05/20 04:17:46;;;;;;;8.30;6.50;;;20.00;99.90;;;;;;7368454;19;20369;-39
2022/05/20 04:20:20;;;;;;;8.10;6.57;;;20.20;99.90;;;;;;7369938;19;20386;-41
2022/05/20 04:22:50;;;;;;;7.27;6.27;;;20.00;99.90;;;;;;7367422;19;20908;-39
2022/05/20 04:25:20;;;;;;;7.80;5.93;;;20.10;99.90;;;;;;7369126;19;20364;-39
2022/05/20 04:27:54;;;;;;;8.23;6.17;;;20.20;99.90;;;;;;7358417;19;20368;-42
2022/05/20 04:30:24;;;;;;;8.30;6.13;;;20.30;99.90;;;;;;7367742;19;20368;-42
2022/05/20 04:32:53;;;;;;;17.17;8.07;;;20.40;99.90;;;;;;7365953;19;20371;-41
2022/05/20 04:35:24;;;;;;;6.90;6.07;;;20.10;99.90;;;;;;7370179;19;20728;-39
2022/05/20 04:37:56;;;;;;;10.37;6.47;;;20.10;99.90;;;;;;7368654;19;20371;-39
2022/05/20 04:40:28;;;;;;;9.40;5.93;;;20.20;99.90;;;;;;7362626;19;20376;-39
2022/05/20 04:48:26;;;;;;;7.53;5.57;;;20.30;99.90;;;;;;7362004;19;20412;-39
2022/05/20 04:50:55;;;;;;;8.77;5.83;;;20.40;99.90;;;;;;7371424;19;20385;-41
2022/05/20 04:56:07;;;;;;;10.50;7.50;;;20.30;99.90;;;;;;7370776;19;20910;-41
2022/05/20 04:58:40;;;;;;;15.40;6.97;;;20.40;99.90;;;;;;7368986;19;20384;-41
2022/05/20 05:01:12;;;;;;;8.47;5.80;;;20.30;99.90;;;;;;7372803;19;20427;-45
2022/05/20 05:03:44;;;;;;;10.30;5.73;;;20.60;99.90;;;;;;7362174;19;20930;-46
2022/05/20 05:06:16;;;;;;;7.03;5.00;;;20.70;99.90;;;;;;7366459;19;20384;-46
2022/05/20 05:08:45;;;;;;;10.17;5.17;;;20.90;99.90;;;;;;7371370;19;20965;-45
2022/05/20 05:11:15;;;;;;;7.10;5.60;;;20.80;99.90;;;;;;7371548;19;20375;-46
2022/05/20 05:13:49;;;;;;;7.03;6.00;;;20.50;99.90;;;;;;7366403;19;20904;-45
2022/05/20 05:16:19;;;;;;;6.77;5.60;;;20.60;99.90;;;;;;7363739;19;20387;-45
2022/05/20 05:18:48;;;;;;;7.63;5.60;;;20.70;99.90;;;;;;7363575;19;20412;-46
2022/05/20 05:21:21;;;;;;;6.13;5.10;;;20.80;99.90;;;;;;7372429;19;21551;-45
2022/05/20 05:23:50;;;;;;;6.60;5.43;;;20.60;99.90;;;;;;7371522;19;21631;-46
2022/05/20 05:26:23;;;;;;;7.30;5.80;;;20.80;99.90;;;;;;7374360;19;20375;-45
2022/05/20 05:28:57;;;;;;;7.87;5.80;;;20.80;99.90;;;;;;7363134;19;20410;-45
2022/05/20 05:31:28;;;;;;;5.27;4.50;;;20.80;99.90;;;;;;7361136;19;20380;-46
2022/05/20 05:33:57;;;;;;;12.33;5.90;;;21.00;99.90;;;;;;7367832;19;20376;-45
2022/05/20 05:36:27;;;;;;;6.80;5.47;;;21.10;99.90;;;;;;7373850;19;20380;-46
2022/05/20 05:38:57;;;;;;;8.43;5.40;;;21.30;99.90;;;;;;7369982;19;20372;-45
2022/05/20 05:41:26;;;;;;;8.50;5.90;;;21.40;99.90;;;;;;7373393;19;20384;-45
2022/05/20 05:44:01;;;;;;;6.57;4.67;;;21.30;99.90;;;;;;7372618;19;20380;-44
2022/05/20 05:46:31;;;;;;;7.70;5.10;;;21.40;99.90;;;;;;7371124;19;20703;-45
2022/05/20 05:49:01;;;;;;;7.80;5.90;;;21.60;99.90;;;;;;7358631;19;20447;-45
2022/05/20 05:51:30;;;;;;;8.50;6.50;;;21.60;99.90;;;;;;7356426;19;20404;-45
2022/05/20 05:54:02;;;;;;;6.73;5.40;;;21.80;99.90;;;;;;7373114;19;20734;-45
2022/05/20 05:56:31;;;;;;;8.50;5.87;;;21.80;99.90;;;;;;7373316;19;20735;-44
2022/05/20 05:59:04;;;;;;;6.67;5.93;;;21.70;99.90;;;;;;7370679;19;21491;-45
2022/05/20 06:01:35;;;;;;;9.33;5.57;;;21.90;99.90;;;;;;7371028;19;20382;-45
2022/05/20 06:04:05;;;;;;;6.50;5.70;;;22.10;99.90;;;;;;7370625;19;20383;-46
2022/05/20 06:06:38;;;;;;;6.67;5.70;;;22.30;99.90;;;;;;7369324;19;20380;-46
2022/05/20 06:09:07;;;;;;;5.10;4.60;;;22.40;99.90;;;;;;7368249;19;20373;-46
2022/05/20 06:11:37;;;;;;;7.07;5.33;;;22.70;99.90;;;;;;7370405;19;20753;-46
2022/05/20 06:14:09;;;;;;;6.27;4.70;;;23.00;99.90;;;;;;7367781;19;20381;-46
2022/05/20 06:16:40;;;;;;;5.83;4.87;;;23.10;99.90;;;;;;7372333;19;20391;-45
2022/05/20 06:19:12;;;;;;;8.57;4.87;;;23.20;99.90;;;;;;7369012;19;20737;-45
2022/05/20 06:21:43;;;;;;;5.03;4.53;;;23.30;99.50;;;;;;7370702;19;20389;-45
2022/05/20 06:24:12;;;;;;;6.87;4.70;;;23.50;98.30;;;;;;7369725;19;20360;-45
2022/05/20 06:26:42;;;;;;;5.90;5.10;;;23.50;99.90;;;;;;7366884;19;20368;-46
2022/05/20 06:29:15;;;;;;;7.90;4.80;;;23.40;99.90;;;;;;7364667;19;20401;-46
2022/05/20 06:31:46;;;;;;;7.10;5.83;;;23.40;99.90;;;;;;7363047;19;20438;-46
2022/05/20 06:34:16;;;;;;;7.50;5.60;;;23.50;99.90;;;;;;7354771;19;20379;-45
2022/05/20 06:42:12;;;;;;;5.53;4.00;;;24.00;96.80;;;;;;7357500;19;20400;-45
2022/05/20 06:44:45;;;;;;;12.00;4.07;;;24.10;94.70;;;;;;7366402;19;20431;-45
2022/05/20 06:47:15;;;;;;;6.50;4.43;;;24.30;92.60;;;;;;7365199;19;20372;-45
2022/05/20 06:49:45;;;;;;;12.10;4.53;;;24.40;92.20;;;;;;7358989;19;20433;-46
2022/05/20 06:52:17;;;;;;;4.80;4.00;;;24.50;92.30;;;;;;7373515;19;20407;-45
2022/05/20 06:54:46;;;;;;;3.83;3.40;;;24.70;91.70;;;;;;7374675;19;20415;-45
2022/05/20 06:57:20;;;;;;;8.40;3.80;;;24.80;89.90;;;;;;7360506;19;20372;-45
2022/05/20 06:59:57;;;;;;;4.70;3.87;;;25.00;90.00;;;;;;7371528;19;20364;-45
2022/05/20 07:02:29;;;;;;;4.53;4.10;;;25.10;88.80;;;;;;7365384;19;20372;-45
2022/05/20 07:04:58;;;;;;;6.87;3.53;;;25.20;86.30;;;;;;7375526;19;20843;-45
2022/05/20 07:07:30;;;;;;;4.83;4.03;;;25.30;86.80;;;;;;7349076;19;20377;-46
2022/05/20 07:10:00;;;;;;;7.80;3.83;;;25.40;85.50;;;;;;7368610;19;20380;-46
2022/05/20 07:12:34;;;;;;;5.63;4.30;;;25.50;85.80;;;;;;7355977;19;20376;-46
2022/05/20 07:15:10;;;;;;;9.23;4.53;;;25.70;84.40;;;;;;7366753;19;20452;-45
2022/05/20 07:17:40;;;;;;;6.40;3.67;;;25.80;83.50;;;;;;7359709;19;20977;-45
2022/05/20 07:20:11;;;;;;;4.03;3.57;;;25.90;82.80;;;;;;7351778;19;20395;-45
2022/05/20 07:22:43;;;;;;;4.73;3.97;;;26.00;81.90;;;;;;7366738;19;20435;-45
2022/05/20 07:25:14;;;;;;;3.70;3.40;;;26.20;82.00;;;;;;7370322;19;20383;-45
2022/05/20 07:27:46;;;;;;;4.60;3.73;;;26.40;81.30;;;;;;7371642;19;20939;-45
2022/05/20 07:30:19;;;;;;;9.43;4.00;;;26.40;79.80;;;;;;7375259;19;20368;-45
2022/05/20 07:32:48;;;;;;;6.50;3.80;;;26.60;77.50;;;;;;7372386;19;20387;-45
2022/05/20 07:35:19;;;;;;;4.13;3.40;;;26.60;75.80;;;;;;7370783;19;20977;-45
2022/05/20 07:37:53;;;;;;;5.60;4.13;;;26.60;75.30;;;;;;7371741;19;20364;-46
2022/05/20 07:40:23;;;;;;;7.00;4.90;;;26.80;76.10;;;;;;7377315;19;20797;-45
2022/05/20 07:42:55;;;;;;;5.90;4.20;;;26.90;75.40;;;;;;7379120;19;20798;-45
2022/05/20 07:45:27;;;;;;;6.47;3.63;;;27.20;73.60;;;;;;7378003;19;20395;-45
2022/05/20 07:47:59;;;;;;;5.03;4.30;;;27.30;72.90;;;;;;7378571;19;20740;-45
2022/05/20 07:50:28;;;;;;;7.67;4.23;;;27.40;71.20;;;;;;7370593;19;20379;-45
2022/05/20 07:55:48;;;;;;;5.43;3.93;;;27.30;70.30;;;;;;7375194;19;20384;-45
2022/05/20 07:58:21;;;;;;;5.40;3.97;;;27.40;69.20;;;;;;7378182;19;20429;-45
2022/05/20 08:00:58;;;;;;;5.97;3.80;;;27.50;69.10;;;;;;7377614;19;20387;-45
2022/05/20 08:06:15;;;;;;;11.87;5.07;;;27.70;67.60;;;;;;7376923;19;20360;-46
2022/05/20 08:08:47;;;;;;;6.70;3.77;;;27.80;65.20;;;;;;7377421;19;20369;-45
2022/05/20 08:11:19;;;;;;;6.67;3.87;;;27.90;64.90;;;;;;7378071;19;20378;-46
2022/05/20 08:13:50;;;;;;;5.33;3.53;;;28.00;67.50;;;;;;7374890;19;20380;-45
2022/05/20 08:16:22;;;;;;;5.30;3.50;;;28.10;64.60;;;;;;7376558;19;20364;-46
2022/05/20 08:18:53;;;;;;;5.67;4.00;;;28.10;64.90;;;;;;7377294;19;20383;-45
2022/05/20 08:21:25;;;;;;;5.27;4.13;;;28.30;62.40;;;;;;7376261;19;20387;-45
2022/05/20 08:23:56;;;;;;;6.53;4.30;;;28.40;63.50;;;;;;7378391;19;20388;-45
2022/05/20 08:26:28;;;;;;;4.10;3.80;;;28.60;62.50;;;;;;7378949;19;20769;-45
2022/05/20 08:29:00;;;;;;;5.40;4.07;;;28.80;62.30;;;;;;7375675;19;20494;-46
2022/05/20 08:31:34;;;;;;;8.43;4.07;;;29.00;59.60;;;;;;7379812;19;20380;-47
2022/05/20 08:34:04;;;;;;;5.67;3.67;;;29.20;58.80;;;;;;7375349;19;20935;-45
2022/05/20 08:36:34;;;;;;;4.93;3.80;;;29.20;56.80;;;;;;7378519;19;20881;-45
2022/05/20 08:39:04;;;;;;;5.80;4.13;;;29.50;57.20;;;;;;7376258;19;20387;-46
2022/05/20 08:41:37;;;;;;;5.63;3.90;;;29.70;57.20;;;;;;7377519;19;20390;-46
2022/05/20 08:44:11;;;;;;;4.00;3.60;;;29.80;56.30;;;;;;7374005;19;20714;-46
2022/05/20 08:46:44;;;;;;;3.77;3.40;;;29.90;55.00;;;;;;7374244;19;20370;-45
2022/05/20 08:49:17;;;;;;;5.87;4.10;;;30.00;54.50;;;;;;7374307;19;20436;-46
2022/05/20 08:51:52;;;;;;;5.17;3.60;;;30.20;53.80;;;;;;7378128;19;20784;-45
2022/05/20 08:54:25;;;;;;;3.80;3.40;;;30.50;52.80;;;;;;7374275;19;21000;-46
2022/05/20 08:56:58;;;;;;;4.20;3.80;;;30.60;52.90;;;;;;7374192;19;20777;-46
2022/05/20 08:59:30;;;;;;;5.97;4.00;;;31.00;53.10;;;;;;7378859;19;20783;-46
2022/05/20 09:02:04;;;;;;;7.73;3.90;;;31.10;51.90;;;;;;7374329;19;20724;-46
2022/05/20 09:04:38;;;;;;;4.23;3.70;;;31.10;51.80;;;;;;7377476;19;20472;-45
2022/05/20 09:07:11;;;;;;;4.07;3.67;;;31.30;51.40;;;;;;7372944;19;20387;-46
2022/05/20 09:09:46;;;;;;;5.10;3.90;;;31.80;50.00;;;;;;7376051;19;20765;-46
2022/05/20 09:12:31;;;;;;;7.57;4.03;;;31.70;48.00;;;;;;7378415;19;20416;-46
2022/05/20 09:17:49;;;;;;;4.00;3.53;;;32.20;47.80;;;;;;7375485;19;20399;-46
2022/05/20 09:20:22;;;;;;;6.17;3.73;;;32.40;46.50;;;;;;7376843;19;20412;-46
2022/05/20 09:23:00;;;;;;;4.50;3.60;;;32.70;46.00;;;;;;7375511;19;20408;-46
2022/05/20 09:25:33;;;;;;;7.53;4.13;;;32.70;44.40;;;;;;7375869;19;20475;-46
2022/05/20 09:28:25;;;;;;;4.13;3.60;;;32.90;44.50;;;;;;7372336;19;21032;-46
2022/05/20 09:31:15;;;;;;;4.47;3.30;;;33.20;43.10;;;;;;7374249;19;21069;-46
2022/05/20 09:34:05;;;;;;;5.10;3.77;;;33.50;43.00;;;;;;7372721;19;20372;-46
2022/05/20 09:36:45;;;;;;;8.87;3.40;;;33.70;40.80;;;;;;7375050;19;20380;-46
2022/05/20 09:39:24;;;;;;;3.33;2.97;;;33.80;40.50;;;;;;7375263;19;21312;-46
2022/05/20 09:41:57;;;;;;;4.10;3.40;;;33.90;40.50;;;;;;7374030;19;20467;-46
2022/05/20 09:44:46;;;;;;;5.43;3.37;;;34.00;40.10;;;;;;7372414;19;20368;-46
2022/05/20 09:47:26;;;;;;;3.73;3.43;;;34.20;39.90;;;;;;7376369;19;21066;-46
2022/05/20 09:50:02;;;;;;;4.40;4.00;;;34.60;38.40;;;;;;7369155;19;20555;-46
2022/05/20 09:52:50;;;;;;;5.40;4.10;;;34.70;37.80;;;;;;7374061;19;20973;-46
2022/05/20 09:55:29;;;;;;;6.57;4.93;;;35.30;38.20;;;;;;7372418;19;20372;-47
2022/05/20 09:58:15;;;;;;;6.30;4.40;;;35.60;38.90;;;;;;7370798;19;20818;-46
2022/05/20 10:00:55;;;;;;;5.40;4.90;;;36.10;34.60;;;;;;7371364;19;20867;-46
2022/05/20 10:03:32;;;;;;;5.67;5.07;;;36.60;34.80;;;;;;7372488;19;20376;-46
2022/05/20 10:06:15;;;;;;;7.60;5.37;;;36.90;33.90;;;;;;7374673;19;20372;-46
2022/05/20 10:08:53;;;;;;;6.73;4.43;;;37.40;33.10;;;;;;7373548;19;20383;-47
2022/05/20 10:11:30;;;;;;;4.27;3.50;;;38.40;32.10;;;;;;7373923;19;20371;-46
2022/05/20 10:14:10;;;;;;;4.20;3.80;;;39.40;30.00;;;;;;7369628;19;20364;-47
2022/05/20 10:17:06;;;;;;;4.47;4.07;;;40.30;29.70;;;;;;7373735;19;20405;-48
2022/05/20 10:19:52;;;;;;;4.00;3.57;;;41.00;28.90;;;;;;7371526;19;20384;-46
2022/05/20 10:22:31;;;;;;;4.00;3.70;;;40.90;27.70;;;;;;7374173;19;20460;-46
2022/05/20 10:25:09;;;;;;;3.60;3.30;;;41.10;28.20;;;;;;7375436;19;20395;-47
2022/05/20 10:27:52;;;;;;;4.50;3.60;;;41.10;27.60;;;;;;7379868;19;20964;-46
2022/05/20 10:33:15;;;;;;;3.90;3.17;;;40.90;28.00;;;;;;7378655;19;20734;-47
2022/05/20 10:35:57;;;;;;;6.10;4.03;;;40.60;27.80;;;;;;7382988;19;20817;-47
2022/05/20 10:39:03;;;;;;;3.77;3.13;;;41.10;27.90;;;;;;7381958;19;20384;-47
2022/05/20 10:41:49;;;;;;;4.53;3.00;;;41.70;26.00;;;;;;7381358;19;20380;-43
2022/05/20 10:50:27;;;;;;;3.83;3.10;;;41.50;24.90;;;;;;7377372;19;20455;-43
2022/05/20 10:53:14;;;;;;;4.43;3.47;;;41.40;25.80;;;;;;7380165;19;20716;-43
2022/05/20 10:56:04;;;;;;;4.83;3.20;;;41.30;24.90;;;;;;7376248;19;20496;-43
2022/05/20 10:58:55;;;;;;;4.97;3.37;;;41.00;25.20;;;;;;7379456;19;20372;-43
2022/05/20 11:01:37;;;;;;;6.97;3.70;;;41.20;25.20;;;;;;7378562;19;20360;-43
2022/05/20 11:04:30;;;;;;;6.40;4.00;;;41.50;25.50;;;;;;7379429;19;20368;-43
2022/05/20 11:07:41;;;;;;;5.03;2.87;;;41.30;24.50;;;;;;7371208;19;20380;-43
2022/05/20 11:10:28;;;;;;;6.80;3.90;;;41.60;24.90;;;;;;7377360;19;20442;-47
2022/05/20 11:13:12;;;;;;;4.67;3.20;;;41.70;24.90;;;;;;7377832;19;20767;-47
2022/05/20 11:16:04;;;;;;;4.50;2.80;;;41.70;24.80;;;;;;7380372;19;20412;-47
2022/05/20 11:19:01;;;;;;;4.27;3.27;;;41.70;23.90;;;;;;7379496;19;20387;-47
2022/05/20 11:21:56;;;;;;;5.77;2.83;;;42.00;24.30;;;;;;7376767;19;20442;-47
2022/05/20 11:24:57;;;;;;;4.90;2.47;;;42.40;24.50;;;;;;7380314;19;20404;-47
2022/05/20 11:27:48;;;;;;;6.33;3.33;;;42.40;23.20;;;;;;7379755;19;20409;-47
2022/05/20 11:30:34;;;;;;;4.70;3.07;;;42.30;23.60;;;;;;7376914;19;20410;-47
2022/05/20 11:33:38;;;;;;;4.40;3.00;;;42.60;24.40;;;;;;7379537;19;20372;-48
2022/05/20 11:36:21;;;;;;;6.77;3.53;;;42.90;24.10;;;;;;7376770;19;20415;-48
2022/05/20 11:39:16;;;;;;;4.50;2.93;;;42.00;23.70;;;;;;7379029;19;20404;-47
2022/05/20 11:41:53;;;;;;;5.60;3.00;;;41.20;25.40;;;;;;7376165;19;20768;-46
2022/05/20 11:44:53;;;;;;;5.90;3.30;;;41.80;24.40;;;;;;7380204;19;20376;-47
2022/05/20 11:48:02;;;;;;;3.23;2.80;;;41.80;23.90;;;;;;7377638;19;20396;-47
2022/05/20 11:51:08;;;;;;;4.00;2.77;;;41.70;25.10;;;;;;7375693;19;20411;-47
2022/05/20 11:53:46;;;;;;;4.00;3.23;;;42.40;25.00;;;;;;7378562;19;21593;-47
2022/05/20 11:56:25;;;;;;;4.37;3.00;;;42.70;23.20;;;;;;7378850;19;20384;-48
2022/05/20 11:59:03;;;;;;;5.10;3.43;;;42.80;22.90;;;;;;7380404;19;20420;-48
2022/05/20 12:01:34;;;;;;;4.70;3.23;;;42.30;23.80;;;;;;7377318;19;20367;-47
2022/05/20 12:04:11;;;;;;;4.07;2.83;;;42.20;24.90;;;;;;7377940;19;20368;-47
2022/05/20 12:06:52;;;;;;;4.63;3.10;;;42.20;23.90;;;;;;7380542;19;20471;-47
2022/05/20 12:09:32;;;;;;;6.27;3.73;;;42.30;24.30;;;;;;7377606;19;21126;-48
2022/05/20 12:12:15;;;;;;;4.73;3.10;;;42.50;23.50;;;;;;7378279;19;20380;-47
2022/05/20 12:15:11;;;;;;;3.40;2.90;;;42.90;23.80;;;;;;7378060;19;20387;-47
2022/05/20 12:17:43;;;;;;;5.20;3.10;;;43.10;23.50;;;;;;7379367;19;20376;-47
2022/05/20 12:26:29;;;;;;;7.00;3.50;;;42.20;24.40;;;;;;7378287;19;20380;-48
2022/05/20 12:29:01;;;;;;;5.07;2.80;;;42.30;23.70;;;;;;7376818;19;20373;-47
2022/05/20 12:31:50;;;;;;;3.40;2.70;;;42.20;23.60;;;;;;7374413;19;20395;-48
2022/05/20 12:34:41;;;;;;;9.50;3.47;;;42.20;23.40;;;;;;7378417;19;20376;-47
2022/05/20 12:37:11;;;;;;;4.20;3.20;;;42.60;22.90;;;;;;7375786;19;20452;-48
2022/05/20 12:39:54;;;;;;;3.37;3.07;;;42.60;23.70;;;;;;7376438;19;20378;-47
2022/05/20 12:42:28;;;;;;;5.60;3.37;;;42.70;23.20;;;;;;7379710;19;20372;-48
2022/05/20 12:45:03;;;;;;;5.47;3.00;;;41.90;23.50;;;;;;7368613;19;20379;-47
2022/05/20 12:47:37;;;;;;;3.13;2.83;;;41.90;23.70;;;;;;7375852;19;20867;-47
2022/05/20 12:50:10;;;;;;;4.13;2.50;;;42.20;23.60;;;;;;7369543;19;20424;-43
2022/05/20 12:52:49;;;;;;;4.93;3.00;;;42.30;22.90;;;;;;7377601;19;20935;-43
2022/05/20 12:55:25;;;;;;;5.13;2.77;;;42.60;22.70;;;;;;7376319;19;20475;-43
2022/05/20 12:57:56;;;;;;;5.23;3.43;;;42.90;23.20;;;;;;7376636;19;20734;-43
2022/05/20 13:00:31;;;;;;;4.00;3.07;;;42.60;21.90;;;;;;7376120;19;20437;-43
2022/05/20 13:03:05;;;;;;;3.20;2.63;;;42.60;23.30;;;;;;7379073;19;20719;-43
2022/05/20 13:05:41;;;;;;;9.17;3.10;;;42.60;22.00;;;;;;7375609;19;21055;-43
2022/05/20 13:08:17;;;;;;;4.33;3.20;;;42.80;21.70;;;;;;7376657;19;20380;-43
2022/05/20 13:10:51;;;;;;;4.93;3.17;;;42.80;22.40;;;;;;7377811;19;21397;-44
2022/05/20 13:13:24;;;;;;;5.30;2.90;;;42.70;21.00;;;;;;7376460;19;20463;-43
2022/05/20 13:16:00;;;;;;;4.53;2.90;;;42.00;22.80;;;;;;7376903;19;21145;-43
2022/05/20 13:18:33;;;;;;;4.40;2.80;;;41.50;23.40;;;;;;7345957;19;20792;-43
2022/05/20 13:21:16;;;;;;;7.57;2.77;;;41.40;23.40;;;;;;7375207;19;20378;-47
2022/05/20 13:23:47;;;;;;;6.70;2.70;;;41.10;23.20;;;;;;7377855;19;21330;-46
2022/05/20 13:26:27;;;;;;;8.80;3.30;;;41.00;23.10;;;;;;7375289;19;20376;-46
2022/05/20 13:29:12;;;;;;;7.03;3.13;;;40.80;22.80;;;;;;7373750;19;20783;-46
2022/05/20 13:31:47;;;;;;;4.40;2.90;;;40.40;23.20;;;;;;7375502;19;20376;-46
2022/05/20 13:34:17;;;;;;;5.50;3.20;;;39.90;24.50;;;;;;7373121;19;20382;-47
2022/05/20 13:36:51;;;;;;;5.70;3.00;;;39.40;23.70;;;;;;7370074;19;20388;-47
2022/05/20 13:39:25;;;;;;;3.23;2.90;;;38.70;25.10;;;;;;7376726;19;20376;-46
2022/05/20 13:41:58;;;;;;;6.13;3.50;;;38.00;25.50;;;;;;7374159;19;21313;-46
2022/05/20 13:44:37;;;;;;;6.10;3.60;;;37.50;26.50;;;;;;7375070;19;20384;-46
2022/05/20 13:50:00;;;;;;;7.53;3.20;;;35.70;27.30;;;;;;7371847;19;20428;-46
2022/05/20 13:52:35;;;;;;;4.57;3.10;;;35.20;28.80;;;;;;7375342;19;20925;-46
2022/05/20 13:55:12;;;;;;;4.77;2.90;;;34.70;28.30;;;;;;7372910;19;20380;-47
2022/05/20 13:57:49;;;;;;;6.70;3.17;;;34.10;29.10;;;;;;7374312;19;20454;-46
2022/05/20 14:00:45;;;;;;;7.20;3.27;;;34.10;29.50;;;;;;7374053;19;20901;-46
2022/05/20 14:03:21;;;;;;;6.03;3.13;;;33.80;29.20;;;;;;7376325;19;20886;-46
2022/05/20 14:06:01;;;;;;;10.00;3.80;;;33.70;29.80;;;;;;7374694;19;20364;-46
2022/05/20 14:08:30;;;;;;;4.43;3.07;;;33.80;30.10;;;;;;7376026;19;20376;-46
2022/05/20 14:11:07;;;;;;;3.30;2.40;;;33.90;30.20;;;;;;7371918;19;20425;-47
2022/05/20 14:13:43;;;;;;;5.63;3.03;;;33.70;29.70;;;;;;7375793;19;20459;-46